Smackover, Arkansas
Current Conditions -  °F | °C
As of 9:53 PM on Thursday 20 Nov 2014 (Local Time) from KELD Reporting Station
Broken Clouds Broken Clouds  
Wind Chill: 53°   Ceiling: 6000
Heat Index: 53°   Visibility: 10mi
Dew Point: 49°   Wind: 6mph
Humidity: 86%   Direction: 130°SE
Pressure: 30.17"   Gusts: NA
Location:  33.36°N, 92.72°W
Report Text: KELD 210353Z AUTO 13005KT 10SM FEW047 BKN060 BKN100 12/09 A3017 RMK AO2 SLP214 T01170094
Loading
Personal Weather Stations






























Interactive Weather Map New forecast layout! Learn more

10-Day Weather Forecast

Advertisements
Track Severe Weather on mobile